Time;durP1;ratioP1;P1;durP2;ratioP2;P2;SDS_P1;SDS_P2;PMS_P1;PMS_P2;Temp;Humidity;BMP_temperature;BMP_pressure;BME280_temperature;BME280_humidity;BME280_pressure;Samples;Min_cycle;Max_cycle;Signal;HPM_P1;HPM_P2
2022/09/24 00:00:17;;;;;;;19.52;8.85;;;10.40;99.90;;;;;;5035778;28;20535;-76
2022/09/24 00:02:42;;;;;;;16.05;8.15;;;10.30;99.90;;;;;;5042212;28;20037;-76
2022/09/24 00:05:08;;;;;;;14.18;7.65;;;10.20;99.90;;;;;;5035463;28;20035;-75
2022/09/24 00:07:33;;;;;;;19.75;8.73;;;10.20;99.90;;;;;;5037582;28;20063;-76
2022/09/24 00:09:59;;;;;;;17.33;8.23;;;10.20;99.90;;;;;;5041425;28;20102;-76
2022/09/24 00:12:24;;;;;;;15.35;9.23;;;10.00;99.90;;;;;;5046979;28;20032;-76
2022/09/24 00:14:50;;;;;;;17.88;8.82;;;10.00;99.90;;;;;;5033746;28;20021;-76
2022/09/24 00:17:15;;;;;;;16.33;8.95;;;10.00;99.90;;;;;;5047386;28;20056;-75
2022/09/24 00:19:41;;;;;;;16.92;8.40;;;9.90;99.90;;;;;;5047032;28;20017;-75
2022/09/24 00:22:06;;;;;;;17.15;8.73;;;9.90;99.90;;;;;;5046895;28;20032;-75
2022/09/24 00:27:16;;;;;;;13.43;7.88;;;9.80;99.90;;;;;;5030753;28;20048;-75
2022/09/24 00:29:41;;;;;;;15.32;7.90;;;9.80;99.90;;;;;;5035715;28;20045;-75
2022/09/24 00:32:07;;;;;;;18.50;8.70;;;9.70;99.90;;;;;;5036349;28;20044;-75
2022/09/24 00:34:33;;;;;;;13.80;7.68;;;9.70;99.90;;;;;;5041667;28;20115;-75
2022/09/24 00:36:58;;;;;;;12.27;7.60;;;9.60;99.90;;;;;;5038267;28;20017;-75
2022/09/24 00:39:24;;;;;;;13.35;7.57;;;9.60;99.90;;;;;;5044616;28;20064;-76
2022/09/24 00:41:50;;;;;;;12.73;6.55;;;9.50;99.90;;;;;;5029995;28;20112;-75
2022/09/24 00:44:42;;;;;;;9.38;6.38;;;9.60;99.90;;;;;;5045781;28;20035;-76
2022/09/24 00:47:29;;;;;;;14.55;6.90;;;9.60;99.90;;;;;;5046299;28;20767;-76
2022/09/24 00:50:15;;;;;;;17.58;7.35;;;9.60;99.90;;;;;;5029624;28;20048;-75
2022/09/24 00:52:46;;;;;;;14.43;6.88;;;9.60;99.90;;;;;;5028206;28;20021;-75
2022/09/24 00:55:13;;;;;;;12.95;6.90;;;9.60;99.90;;;;;;5040113;28;20487;-75
2022/09/24 00:57:40;;;;;;;13.45;6.95;;;9.60;99.90;;;;;;5047179;28;20082;-76
2022/09/24 01:00:07;;;;;;;12.32;6.63;;;9.60;99.90;;;;;;5048385;28;20056;-76
2022/09/24 01:02:36;;;;;;;16.15;7.25;;;9.60;99.90;;;;;;5045750;28;20547;-75
2022/09/24 01:05:02;;;;;;;12.25;6.05;;;9.60;99.90;;;;;;5044479;28;20039;-76
2022/09/24 01:07:28;;;;;;;11.45;6.82;;;9.60;99.90;;;;;;5043878;28;20036;-75
2022/09/24 01:09:53;;;;;;;13.38;7.50;;;9.70;99.90;;;;;;5042064;28;20025;-75
2022/09/24 01:12:32;;;;;;;15.52;7.32;;;9.70;99.90;;;;;;5037446;28;20109;-75
2022/09/24 01:15:10;;;;;;;11.43;6.35;;;9.70;99.90;;;;;;5041341;28;20097;-76
2022/09/24 01:17:55;;;;;;;10.57;6.13;;;9.80;99.90;;;;;;5039318;28;20488;-75
2022/09/24 01:20:23;;;;;;;12.90;5.80;;;9.80;99.90;;;;;;5038295;28;20049;-76
2022/09/24 01:23:11;;;;;;;10.82;6.28;;;9.90;99.90;;;;;;5028272;28;20053;-75
2022/09/24 01:26:03;;;;;;;9.88;6.32;;;9.90;99.90;;;;;;5040108;28;20498;-75
2022/09/24 01:28:49;;;;;;;13.57;6.22;;;10.00;99.90;;;;;;5046115;28;20446;-75
2022/09/24 01:31:40;;;;;;;11.75;6.38;;;10.00;99.90;;;;;;5043932;28;20039;-75
2022/09/24 01:34:13;;;;;;;15.65;6.07;;;10.10;99.90;;;;;;5043436;28;20021;-75
2022/09/24 01:36:40;;;;;;;8.30;5.45;;;10.20;99.90;;;;;;5038577;28;20091;-75
2022/09/24 01:39:07;;;;;;;12.13;6.50;;;10.20;99.90;;;;;;5035499;28;20033;-75
2022/09/24 01:41:35;;;;;;;9.07;5.35;;;10.20;99.90;;;;;;5048190;28;20029;-74
2022/09/24 01:44:03;;;;;;;10.25;5.80;;;10.20;99.90;;;;;;5047699;28;20033;-75
2022/09/24 01:46:30;;;;;;;9.18;5.47;;;10.20;99.90;;;;;;5050976;28;20036;-75
2022/09/24 01:48:57;;;;;;;9.25;5.78;;;10.30;99.90;;;;;;5044310;28;20031;-75
2022/09/24 01:51:31;;;;;;;10.20;5.97;;;10.30;99.90;;;;;;5034802;28;20033;-75
2022/09/24 01:54:04;;;;;;;8.55;5.32;;;10.40;99.90;;;;;;5043479;28;20048;-75
2022/09/24 01:56:37;;;;;;;13.70;6.40;;;10.40;99.90;;;;;;5058947;28;20029;-75
2022/09/24 01:59:15;;;;;;;12.40;6.05;;;10.40;99.90;;;;;;5047215;28;20029;-75
2022/09/24 02:01:56;;;;;;;10.93;6.20;;;10.50;99.90;;;;;;5049366;28;20437;-75
2022/09/24 02:04:24;;;;;;;10.77;5.88;;;10.50;99.90;;;;;;5047596;28;20119;-75
2022/09/24 02:07:00;;;;;;;9.50;5.07;;;10.50;99.90;;;;;;5048238;28;20036;-74
2022/09/24 02:09:44;;;;;;;11.65;5.95;;;10.50;99.90;;;;;;5044960;28;20033;-75
2022/09/24 02:12:25;;;;;;;10.32;5.55;;;10.50;99.90;;;;;;5050744;28;20547;-75
2022/09/24 02:14:55;;;;;;;10.27;5.22;;;10.50;99.90;;;;;;5048700;28;20048;-75
2022/09/24 02:17:24;;;;;;;6.93;4.70;;;10.60;99.90;;;;;;5042471;28;20230;-75
2022/09/24 02:19:52;;;;;;;7.53;5.20;;;10.60;99.90;;;;;;5048391;28;20029;-75
2022/09/24 02:22:19;;;;;;;8.30;5.07;;;10.60;99.90;;;;;;5041364;28;20688;-75
2022/09/24 02:24:52;;;;;;;10.52;5.50;;;10.60;99.90;;;;;;5040855;28;20040;-75
2022/09/24 02:27:18;;;;;;;10.70;4.88;;;10.60;99.90;;;;;;5047948;28;20471;-75
2022/09/24 02:29:44;;;;;;;8.60;4.95;;;10.60;99.90;;;;;;5048915;28;20051;-75
2022/09/24 02:32:17;;;;;;;8.18;4.72;;;10.50;99.90;;;;;;5046586;28;20029;-75
2022/09/24 02:34:48;;;;;;;11.60;4.53;;;10.60;99.90;;;;;;5042986;28;20018;-75
2022/09/24 02:37:15;;;;;;;8.52;4.60;;;10.60;99.90;;;;;;5046295;28;20285;-75
2022/09/24 02:39:41;;;;;;;8.50;4.50;;;10.60;99.90;;;;;;5039794;28;20033;-75
2022/09/24 02:42:09;;;;;;;6.82;4.22;;;10.60;99.90;;;;;;5032289;28;20498;-75
2022/09/24 02:44:35;;;;;;;8.90;4.70;;;10.60;99.90;;;;;;5050050;28;20033;-75
2022/09/24 02:47:01;;;;;;;7.60;4.38;;;10.70;99.90;;;;;;5046969;28;20414;-75
2022/09/24 02:49:27;;;;;;;6.68;4.28;;;10.70;99.90;;;;;;5035442;28;20534;-75
2022/09/24 02:51:53;;;;;;;7.68;4.55;;;10.80;99.90;;;;;;5045337;28;20053;-75
2022/09/24 02:54:18;;;;;;;7.47;4.43;;;10.70;99.90;;;;;;5043145;28;20044;-75
2022/09/24 02:56:44;;;;;;;6.80;4.40;;;10.60;99.90;;;;;;5049775;28;20023;-75
2022/09/24 02:59:11;;;;;;;6.25;4.22;;;10.70;99.90;;;;;;5044526;28;20029;-75
2022/09/24 03:01:36;;;;;;;7.22;3.85;;;10.70;99.90;;;;;;5046694;28;20029;-75
2022/09/24 03:04:02;;;;;;;5.30;3.70;;;10.80;99.90;;;;;;5042817;28;20036;-75
2022/09/24 03:06:29;;;;;;;6.18;4.45;;;10.80;99.90;;;;;;5035239;28;20778;-75
2022/09/24 03:08:55;;;;;;;5.97;3.97;;;10.80;99.90;;;;;;5046182;28;20404;-75
2022/09/24 03:11:22;;;;;;;5.10;4.00;;;10.80;99.90;;;;;;5047347;28;20074;-75
2022/09/24 03:13:48;;;;;;;7.03;4.28;;;10.70;99.90;;;;;;5045506;28;20040;-75
2022/09/24 03:16:15;;;;;;;5.35;3.80;;;10.70;99.90;;;;;;5047296;28;20472;-75
2022/09/24 03:18:40;;;;;;;9.93;3.70;;;10.70;99.90;;;;;;5042689;28;20055;-75
2022/09/24 03:21:09;;;;;;;6.80;3.97;;;10.50;99.90;;;;;;5032702;28;20021;-75
2022/09/24 03:23:38;;;;;;;5.95;4.03;;;10.60;99.90;;;;;;5033367;28;20399;-75
2022/09/24 03:26:04;;;;;;;7.78;4.45;;;10.70;99.90;;;;;;5029907;28;20033;-75
2022/09/24 03:28:30;;;;;;;6.78;3.90;;;10.60;99.90;;;;;;5046978;28;20415;-75
2022/09/24 03:31:01;;;;;;;7.65;4.10;;;10.50;99.90;;;;;;5047289;28;20106;-75
2022/09/24 03:33:28;;;;;;;;;;;10.50;99.90;;;;;;5048966;28;20032;-75
2022/09/24 03:36:10;;;;;;;5.18;3.75;;;10.50;99.90;;;;;;5035329;28;19909;-75
2022/09/24 03:38:37;;;;;;;6.40;3.88;;;10.50;99.90;;;;;;5044494;28;20029;-75
2022/09/24 03:41:04;;;;;;;5.75;3.97;;;10.50;99.90;;;;;;5046101;28;20021;-75
2022/09/24 03:43:30;;;;;;;7.05;4.32;;;10.60;99.90;;;;;;5035702;28;20021;-76
2022/09/24 03:45:56;;;;;;;5.38;3.70;;;10.60;99.90;;;;;;5036654;28;20105;-76
2022/09/24 03:48:23;;;;;;;6.40;3.72;;;10.60;99.90;;;;;;5046403;28;20114;-75
2022/09/24 03:50:49;;;;;;;5.72;4.00;;;10.60;99.90;;;;;;5029453;28;20247;-75
2022/09/24 03:53:15;;;;;;;5.70;3.75;;;10.60;99.90;;;;;;5042370;28;20032;-75
2022/09/24 03:55:45;;;;;;;6.70;3.70;;;10.70;99.90;;;;;;5046909;28;20037;-75
2022/09/24 03:58:12;;;;;;;4.53;3.42;;;10.70;99.90;;;;;;5039418;28;20029;-75
2022/09/24 04:00:38;;;;;;;5.82;3.78;;;10.70;99.90;;;;;;5040310;28;20484;-75
2022/09/24 04:03:04;;;;;;;5.82;3.88;;;10.60;99.90;;;;;;5041588;28;20032;-75
2022/09/24 04:05:30;;;;;;;4.90;3.80;;;10.60;99.90;;;;;;5047917;28;20422;-75
2022/09/24 04:07:57;;;;;;;7.50;3.95;;;10.70;99.90;;;;;;5049338;28;20056;-76
2022/09/24 04:10:23;;;;;;;6.82;4.05;;;10.70;99.90;;;;;;5049130;28;20036;-75
2022/09/24 04:12:49;;;;;;;6.50;3.90;;;10.70;99.90;;;;;;5035919;28;20044;-73
2022/09/24 04:15:17;;;;;;;7.03;4.03;;;10.70;99.90;;;;;;5040821;28;20025;-74
2022/09/24 04:17:51;;;;;;;5.45;4.05;;;10.70;99.90;;;;;;5037829;28;20107;-74
2022/09/24 04:20:21;;;;;;;6.20;3.75;;;10.80;99.90;;;;;;5046310;28;20029;-74
2022/09/24 04:22:48;;;;;;;9.52;4.40;;;10.70;99.90;;;;;;5041903;28;20571;-74
2022/09/24 04:25:14;;;;;;;8.00;4.30;;;10.70;99.90;;;;;;5035698;28;20429;-76
2022/09/24 04:27:40;;;;;;;7.70;4.47;;;10.80;99.90;;;;;;5044197;28;20057;-74
2022/09/24 04:30:06;;;;;;;8.95;4.35;;;10.60;99.90;;;;;;5029436;28;20267;-74
2022/09/24 04:32:31;;;;;;;7.57;4.07;;;10.70;99.90;;;;;;5046213;28;20037;-75
2022/09/24 04:34:57;;;;;;;5.70;3.75;;;10.70;99.90;;;;;;5047111;28;20037;-75
2022/09/24 04:37:22;;;;;;;5.07;3.80;;;10.70;99.90;;;;;;5045318;28;20025;-75
2022/09/24 04:39:48;;;;;;;8.85;4.40;;;10.80;99.90;;;;;;5039690;28;20087;-75
2022/09/24 04:42:17;;;;;;;7.63;4.30;;;10.80;99.90;;;;;;5039428;28;20029;-74
2022/09/24 04:44:45;;;;;;;6.82;4.25;;;10.80;99.90;;;;;;5047332;28;20720;-75
2022/09/24 04:47:12;;;;;;;6.25;4.22;;;10.80;99.90;;;;;;5045385;28;20032;-74
2022/09/24 04:49:37;;;;;;;6.15;4.20;;;10.80;99.90;;;;;;5034779;28;20091;-74
2022/09/24 04:52:03;;;;;;;6.05;4.05;;;10.80;99.90;;;;;;5036543;28;20464;-74
2022/09/24 04:54:28;;;;;;;6.30;4.10;;;10.80;99.90;;;;;;5043209;28;20029;-74
2022/09/24 04:56:54;;;;;;;5.63;4.15;;;10.70;99.90;;;;;;5055521;28;20044;-74
2022/09/24 04:59:21;;;;;;;6.80;4.35;;;10.60;99.90;;;;;;5045477;28;20031;-74
2022/09/24 05:01:47;;;;;;;6.72;4.50;;;10.70;99.90;;;;;;5041027;28;20037;-74
2022/09/24 05:04:12;;;;;;;5.78;4.47;;;10.70;99.90;;;;;;5047151;28;20862;-75
2022/09/24 05:06:38;;;;;;;7.90;4.32;;;10.80;99.90;;;;;;5045274;28;20052;-74
2022/09/24 05:09:03;;;;;;;6.97;4.20;;;10.90;99.90;;;;;;5044187;28;20029;-74
2022/09/24 05:11:29;;;;;;;7.07;4.60;;;10.80;99.90;;;;;;5044813;28;20025;-75
2022/09/24 05:13:54;;;;;;;5.28;3.80;;;10.90;99.90;;;;;;5028161;28;20026;-74
2022/09/24 05:16:21;;;;;;;7.43;4.18;;;10.90;99.90;;;;;;5032327;28;20021;-75
2022/09/24 05:18:46;;;;;;;9.63;4.85;;;10.90;99.90;;;;;;5046410;28;20495;-74
2022/09/24 05:21:18;;;;;;;6.35;4.50;;;11.00;99.90;;;;;;5033764;28;20036;-74
2022/09/24 05:23:43;;;;;;;;;;;10.90;99.90;;;;;;5036460;28;20070;-74
2022/09/24 05:28:52;;;;;;;6.55;4.45;;;11.00;99.90;;;;;;5045994;28;20124;-75
2022/09/24 05:31:19;;;;;;;9.30;5.25;;;11.00;99.90;;;;;;5043696;28;20092;-74
2022/09/24 05:33:45;;;;;;;7.03;4.78;;;11.00;99.90;;;;;;5037739;28;20443;-74
2022/09/24 05:36:10;;;;;;;9.20;5.25;;;11.00;99.90;;;;;;5040664;28;20100;-74
2022/09/24 05:38:35;;;;;;;7.65;4.93;;;11.00;99.90;;;;;;5045281;28;20027;-74
2022/09/24 05:41:01;;;;;;;6.10;4.38;;;10.90;99.90;;;;;;5030291;28;20102;-74
2022/09/24 05:43:26;;;;;;;9.63;5.18;;;10.80;99.90;;;;;;5044133;28;20029;-74
2022/09/24 05:45:53;;;;;;;8.52;5.03;;;10.70;99.90;;;;;;5041002;28;20032;-74
2022/09/24 05:48:19;;;;;;;6.95;4.75;;;10.90;99.90;;;;;;5041888;28;20037;-74
2022/09/24 05:50:45;;;;;;;9.52;5.22;;;10.90;99.90;;;;;;5027525;28;20057;-74
2022/09/24 05:53:11;;;;;;;7.38;4.55;;;11.10;99.90;;;;;;5028409;28;20474;-74
2022/09/24 05:55:37;;;;;;;9.02;5.45;;;11.10;99.90;;;;;;5050374;28;20028;-74
2022/09/24 05:58:06;;;;;;;6.55;4.57;;;11.20;99.90;;;;;;5035121;28;20036;-74
2022/09/24 06:00:34;;;;;;;8.10;5.20;;;11.20;99.90;;;;;;5045138;28;20383;-75
2022/09/24 06:03:06;;;;;;;7.38;4.75;;;11.20;99.90;;;;;;5043092;28;20033;-74
2022/09/24 06:05:34;;;;;;;8.07;4.60;;;11.20;99.90;;;;;;5042678;28;20021;-74
2022/09/24 06:08:00;;;;;;;7.68;5.32;;;11.30;99.90;;;;;;5046330;28;20504;-74
2022/09/24 06:10:26;;;;;;;5.97;4.13;;;11.30;99.90;;;;;;5043278;28;20033;-74
2022/09/24 06:12:52;;;;;;;6.57;4.55;;;11.30;99.90;;;;;;5037291;28;20040;-74
2022/09/24 06:15:18;;;;;;;7.47;4.65;;;11.50;99.90;;;;;;5032118;28;20025;-74
2022/09/24 06:17:43;;;;;;;6.97;4.40;;;11.50;99.90;;;;;;5040897;28;20017;-75
2022/09/24 06:20:09;;;;;;;8.50;5.38;;;11.60;99.90;;;;;;5044351;28;20057;-74
2022/09/24 06:22:34;;;;;;;8.77;5.25;;;11.60;99.90;;;;;;5041507;28;20025;-74
2022/09/24 06:25:00;;;;;;;9.50;4.90;;;11.70;99.90;;;;;;5041623;28;20380;-75
2022/09/24 06:27:25;;;;;;;10.73;5.03;;;11.90;99.90;;;;;;5043536;28;20112;-74
2022/09/24 06:29:51;;;;;;;8.43;5.03;;;12.00;99.90;;;;;;5043062;28;20048;-74
2022/09/24 06:32:18;;;;;;;6.47;4.55;;;11.90;99.90;;;;;;5049357;28;20047;-74
2022/09/24 06:34:44;;;;;;;7.72;4.70;;;11.70;99.90;;;;;;5031756;28;20540;-74
2022/09/24 06:37:09;;;;;;;7.45;4.82;;;12.00;99.90;;;;;;5033245;28;20018;-75
2022/09/24 06:39:35;;;;;;;6.32;4.60;;;12.20;99.90;;;;;;5050220;28;20124;-75
2022/09/24 06:42:00;;;;;;;9.95;5.38;;;12.40;99.90;;;;;;5048854;28;20021;-74
2022/09/24 06:44:26;;;;;;;5.95;4.35;;;12.60;99.90;;;;;;5049949;28;20047;-75
2022/09/24 06:46:51;;;;;;;7.03;5.03;;;12.70;99.90;;;;;;5046687;28;20388;-74
2022/09/24 06:49:17;;;;;;;11.15;5.53;;;12.70;99.90;;;;;;5047442;28;20033;-74
2022/09/24 06:51:42;;;;;;;9.13;4.95;;;12.90;99.90;;;;;;5044367;28;20028;-74
2022/09/24 06:54:11;;;;;;;7.35;5.35;;;12.90;99.90;;;;;;5041660;28;20021;-74
2022/09/24 06:56:36;;;;;;;7.70;4.55;;;12.90;99.90;;;;;;5050374;28;20025;-75
2022/09/24 06:59:02;;;;;;;7.35;4.63;;;12.90;99.90;;;;;;5038464;28;20040;-74
2022/09/24 07:01:28;;;;;;;8.05;4.28;;;12.70;99.90;;;;;;5040202;28;20029;-74
2022/09/24 07:03:53;;;;;;;10.85;5.25;;;12.70;99.90;;;;;;5031633;28;20109;-74
2022/09/24 07:06:19;;;;;;;5.90;4.45;;;12.70;99.90;;;;;;5050466;28;20048;-74
2022/09/24 07:08:50;;;;;;;9.10;4.68;;;12.80;99.90;;;;;;5044399;28;20236;-74
2022/09/24 07:11:15;;;;;;;7.43;4.65;;;12.90;99.90;;;;;;5042293;28;20017;-74
2022/09/24 07:13:40;;;;;;;6.43;4.75;;;12.80;99.90;;;;;;5042964;28;20376;-75
2022/09/24 07:16:06;;;;;;;7.70;4.28;;;12.90;99.90;;;;;;5043662;28;20025;-74
2022/09/24 07:18:31;;;;;;;6.85;4.65;;;13.00;99.90;;;;;;5045997;28;20104;-74
2022/09/24 07:21:00;;;;;;;7.38;4.75;;;13.10;99.90;;;;;;5047141;28;20029;-74
2022/09/24 07:23:26;;;;;;;8.65;5.10;;;13.20;99.90;;;;;;5044139;28;20029;-74
2022/09/24 07:25:55;;;;;;;6.20;4.32;;;13.20;99.90;;;;;;5041268;28;20100;-74
2022/09/24 07:28:20;;;;;;;6.97;4.78;;;13.30;99.90;;;;;;5040562;28;20025;-74
2022/09/24 07:30:46;;;;;;;7.32;4.80;;;13.40;99.90;;;;;;5007678;28;20515;-75
2022/09/24 07:33:11;;;;;;;6.43;4.40;;;13.50;99.90;;;;;;5003974;28;20026;-75
2022/09/24 07:35:38;;;;;;;6.10;4.43;;;13.60;99.90;;;;;;5007190;28;20053;-75
2022/09/24 07:38:10;;;;;;;6.70;4.57;;;13.70;99.90;;;;;;5009567;28;20026;-76
2022/09/24 07:40:36;;;;;;;7.38;4.43;;;13.80;99.90;;;;;;4999104;28;20057;-75
2022/09/24 07:43:02;;;;;;;6.38;4.63;;;13.80;99.90;;;;;;5004529;28;20489;-76
2022/09/24 07:45:32;;;;;;;7.80;4.45;;;13.80;99.90;;;;;;5006237;28;20441;-76
2022/09/24 07:48:02;;;;;;;8.48;4.60;;;13.80;99.90;;;;;;5004602;28;20056;-75
2022/09/24 07:50:30;;;;;;;9.55;5.28;;;13.80;99.90;;;;;;4994507;28;20061;-75
2022/09/24 07:52:56;;;;;;;8.20;4.25;;;13.80;99.90;;;;;;4999849;28;20124;-75
2022/09/24 07:55:22;;;;;;;8.63;5.07;;;13.80;99.90;;;;;;5006033;28;20122;-84
2022/09/24 07:57:49;;;;;;;10.00;4.78;;;13.90;99.90;;;;;;4998513;28;20030;-75
2022/09/24 08:00:16;;;;;;;9.18;4.93;;;14.00;99.90;;;;;;4987895;28;20109;-77
2022/09/24 08:02:43;;;;;;;7.57;4.72;;;14.10;99.90;;;;;;5000566;28;20156;-76
2022/09/24 08:05:09;;;;;;;7.57;4.93;;;14.10;99.90;;;;;;5003149;28;20383;-76
2022/09/24 08:07:34;;;;;;;7.05;4.50;;;14.10;99.90;;;;;;5009877;28;20164;-76
2022/09/24 08:10:00;;;;;;;7.03;4.38;;;14.10;99.90;;;;;;4992504;28;20117;-76
2022/09/24 08:12:26;;;;;;;6.55;4.40;;;14.30;99.90;;;;;;5000797;28;20485;-76
2022/09/24 08:14:52;;;;;;;6.22;4.38;;;14.50;99.90;;;;;;5003401;28;20033;-76
2022/09/24 08:17:18;;;;;;;5.25;3.97;;;14.70;99.90;;;;;;5008327;28;20045;-76
2022/09/24 08:19:45;;;;;;;7.45;4.53;;;14.90;99.90;;;;;;4994222;28;20131;-76
2022/09/24 08:22:11;;;;;;;6.72;4.38;;;15.10;99.90;;;;;;5009503;28;20026;-76
2022/09/24 08:24:37;;;;;;;7.60;5.00;;;14.90;99.90;;;;;;5005843;28;20097;-76
2022/09/24 08:27:02;;;;;;;8.35;4.80;;;15.10;99.90;;;;;;4999337;28;20121;-76
2022/09/24 08:29:28;;;;;;;6.88;4.28;;;15.10;99.90;;;;;;5020320;28;20361;-76
2022/09/24 08:31:53;;;;;;;8.35;4.43;;;15.30;99.90;;;;;;5048555;28;20024;-75
2022/09/24 08:34:19;;;;;;;7.55;4.72;;;15.50;99.90;;;;;;5046962;28;20021;-75
2022/09/24 08:36:45;;;;;;;7.13;4.55;;;15.50;99.90;;;;;;5047152;28;20036;-75
2022/09/24 08:39:12;;;;;;;8.30;4.43;;;15.60;99.90;;;;;;5038377;28;20464;-75
2022/09/24 08:42:00;;;;;;;6.95;4.65;;;15.60;99.90;;;;;;5043615;28;20064;-75
2022/09/24 08:47:33;;;;;;;7.38;4.95;;;16.00;99.90;;;;;;5049070;28;20415;-76
2022/09/24 08:50:30;;;;;;;6.75;4.22;;;16.20;98.80;;;;;;5048336;28;20029;-76
2022/09/24 08:53:09;;;;;;;7.63;5.03;;;16.30;96.70;;;;;;5037166;28;20377;-75
2022/09/24 08:55:46;;;;;;;7.03;4.57;;;16.40;95.80;;;;;;5043912;28;20029;-76
2022/09/24 08:58:30;;;;;;;7.75;4.32;;;16.50;95.60;;;;;;5038992;28;20055;-76
2022/09/24 09:01:26;;;;;;;5.93;4.15;;;16.50;97.30;;;;;;5041402;28;20140;-76
2022/09/24 09:03:57;;;;;;;6.97;5.05;;;16.40;95.90;;;;;;5039403;28;20046;-76
2022/09/24 09:06:42;;;;;;;;;;;16.80;95.60;;;;;;5037569;28;20021;-76
2022/09/24 09:09:39;;;;;;;6.57;4.63;;;17.00;94.80;;;;;;5046507;28;20370;-77
2022/09/24 09:12:12;;;;;;;7.78;4.70;;;16.80;94.90;;;;;;5043259;28;20020;-75
2022/09/24 09:15:10;;;;;;;7.57;5.20;;;16.90;93.90;;;;;;5031761;28;20033;-75
2022/09/24 09:17:46;;;;;;;7.55;4.78;;;17.00;94.30;;;;;;5045620;28;20108;-75
2022/09/24 09:20:23;;;;;;;6.63;4.57;;;17.20;92.50;;;;;;5030266;28;20037;-75
2022/09/24 09:22:50;;;;;;;7.63;4.72;;;17.20;94.40;;;;;;5039181;28;20029;-74
2022/09/24 09:25:24;;;;;;;9.43;5.25;;;17.40;92.50;;;;;;5036205;28;20397;-76
2022/09/24 09:27:59;;;;;;;5.28;4.32;;;17.50;92.50;;;;;;5035807;28;20025;-75
2022/09/24 09:30:25;;;;;;;8.63;4.63;;;18.10;93.00;;;;;;5034963;28;20039;-75
2022/09/24 09:33:17;;;;;;;6.53;4.70;;;18.50;92.00;;;;;;5032591;28;20387;-75
2022/09/24 09:36:04;;;;;;;11.70;4.60;;;18.50;89.60;;;;;;5040671;28;20025;-75
2022/09/24 09:38:52;;;;;;;6.80;4.53;;;18.50;90.80;;;;;;5039407;28;20087;-76
2022/09/24 09:41:37;;;;;;;7.88;4.57;;;18.50;87.70;;;;;;5040403;28;20036;-75
2022/09/24 09:44:24;;;;;;;6.95;4.90;;;18.00;89.90;;;;;;5033338;28;20037;-76
2022/09/24 09:46:56;;;;;;;8.38;4.70;;;18.10;90.10;;;;;;5037922;28;20025;-76
2022/09/24 09:49:26;;;;;;;7.90;4.50;;;18.10;87.40;;;;;;5036832;28;20297;-76
2022/09/24 09:51:55;;;;;;;6.40;4.30;;;18.20;84.00;;;;;;5039145;28;20060;-76
2022/09/24 09:54:20;;;;;;;8.27;4.50;;;18.20;84.50;;;;;;5033337;28;20029;-77
2022/09/24 09:56:49;;;;;;;7.53;4.20;;;18.20;84.30;;;;;;5045868;28;20021;-76
2022/09/24 09:59:20;;;;;;;7.55;4.07;;;18.30;87.10;;;;;;5039393;28;20025;-76
2022/09/24 10:01:55;;;;;;;7.78;4.88;;;18.50;87.40;;;;;;5039561;28;20501;-76
2022/09/24 10:04:38;;;;;;;6.35;4.18;;;18.10;85.40;;;;;;5048494;28;20039;-76
2022/09/24 10:07:11;;;;;;;6.15;3.85;;;18.20;87.20;;;;;;5044821;28;20038;-76
2022/09/24 10:09:38;;;;;;;8.48;4.10;;;18.40;86.90;;;;;;5042129;28;20028;-76
2022/09/24 10:12:17;;;;;;;8.18;4.10;;;18.20;86.40;;;;;;5044686;28;20083;-81
2022/09/24 10:14:43;;;;;;;7.07;4.13;;;18.00;86.10;;;;;;5046205;28;20108;-76
2022/09/24 10:17:15;;;;;;;5.53;3.83;;;17.80;85.60;;;;;;5046341;28;20056;-76
2022/09/24 10:19:51;;;;;;;6.63;4.10;;;17.70;87.80;;;;;;5040512;28;20041;-75
2022/09/24 10:22:24;;;;;;;6.25;3.97;;;17.50;86.30;;;;;;5046155;28;20048;-75
2022/09/24 10:24:50;;;;;;;5.78;3.90;;;17.70;88.70;;;;;;5037792;28;20040;-76
2022/09/24 10:27:33;;;;;;;6.45;4.07;;;17.80;86.20;;;;;;5036775;28;20388;-75
2022/09/24 10:32:44;;;;;;;5.28;3.80;;;17.80;84.70;;;;;;5045049;28;20086;-76
2022/09/24 10:35:28;;;;;;;8.32;3.80;;;17.70;83.30;;;;;;5049938;28;20033;-76
2022/09/24 10:37:59;;;;;;;7.22;4.18;;;17.70;84.90;;;;;;5050559;28;20021;-76
2022/09/24 10:40:29;;;;;;;5.97;3.78;;;17.50;86.50;;;;;;5043375;28;20028;-76
2022/09/24 10:43:05;;;;;;;5.85;4.22;;;17.50;86.70;;;;;;5040393;28;20029;-76
2022/09/24 10:45:57;;;;;;;5.13;3.63;;;17.70;85.90;;;;;;5045263;28;20021;-75
2022/09/24 10:48:34;;;;;;;5.00;3.50;;;17.60;87.50;;;;;;5030286;28;20288;-75
2022/09/24 10:51:11;;;;;;;5.97;3.85;;;17.80;85.20;;;;;;5043367;28;20037;-76
2022/09/24 10:53:42;;;;;;;5.57;4.07;;;18.10;86.40;;;;;;5049779;28;20033;-76
2022/09/24 10:56:29;;;;;;;7.07;3.97;;;18.10;86.00;;;;;;5048842;28;20498;-76
2022/09/24 10:59:24;;;;;;;5.65;4.00;;;18.20;85.10;;;;;;5033393;28;20171;-75
2022/09/24 11:02:12;;;;;;;6.63;4.10;;;18.20;86.40;;;;;;5045225;28;20094;-75
2022/09/24 11:04:55;;;;;;;4.43;3.67;;;17.90;82.60;;;;;;5029455;28;20025;-75
2022/09/24 11:07:44;;;;;;;5.65;3.28;;;17.90;83.50;;;;;;5029981;28;20472;-76
2022/09/24 11:10:26;;;;;;;6.15;3.50;;;17.80;85.60;;;;;;5043898;28;20039;-75
2022/09/24 11:13:33;;;;;;;5.88;3.65;;;17.80;83.10;;;;;;5048322;28;20839;-75
2022/09/24 11:16:29;;;;;;;5.05;3.47;;;17.70;83.00;;;;;;5038753;28;20032;-75
2022/09/24 11:19:02;;;;;;;4.97;3.53;;;17.60;86.30;;;;;;5040975;28;20036;-75
2022/09/24 11:21:56;;;;;;;4.80;3.83;;;17.60;86.60;;;;;;5046797;28;20434;-75
2022/09/24 11:24:56;;;;;;;6.85;3.67;;;17.60;83.50;;;;;;5035951;28;20029;-76
2022/09/24 11:27:58;;;;;;;5.70;3.53;;;17.50;87.60;;;;;;5045553;28;20029;-76
2022/09/24 11:31:04;;;;;;;6.15;3.92;;;17.60;88.20;;;;;;5033965;28;20065;-75
2022/09/24 11:33:35;;;;;;;4.18;3.25;;;17.70;86.10;;;;;;4992285;28;20084;-75
2022/09/24 11:36:14;;;;;;;6.10;3.55;;;17.90;87.20;;;;;;5033039;28;20053;-75
2022/09/24 11:39:03;;;;;;;7.13;3.47;;;17.90;83.10;;;;;;5042313;28;20032;-75
2022/09/24 11:41:42;;;;;;;4.70;3.65;;;18.10;85.30;;;;;;5041100;28;20039;-75
2022/09/24 11:44:42;;;;;;;9.80;4.00;;;18.30;86.40;;;;;;5031635;28;20037;-75
2022/09/24 11:47:47;;;;;;;4.93;3.72;;;18.70;80.80;;;;;;5037512;28;20032;-75
2022/09/24 11:50:44;;;;;;;5.78;3.75;;;18.90;83.00;;;;;;5047888;28;20499;-76
2022/09/24 11:53:43;;;;;;;4.53;3.60;;;19.40;79.60;;;;;;5038104;28;20021;-75
2022/09/24 11:56:17;;;;;;;6.32;3.80;;;19.60;79.40;;;;;;5039612;28;20025;-75
2022/09/24 11:58:50;;;;;;;4.78;3.40;;;19.60;79.20;;;;;;5044706;28;20491;-76
2022/09/24 12:01:18;;;;;;;5.03;3.60;;;19.70;77.30;;;;;;5047294;28;20033;-75
2022/09/24 12:03:59;;;;;;;4.55;3.30;;;19.50;77.30;;;;;;5034952;28;20055;-76
2022/09/24 12:06:34;;;;;;;5.18;3.58;;;19.40;77.10;;;;;;5040231;28;20383;-76
2022/09/24 12:09:18;;;;;;;5.25;3.47;;;19.20;79.80;;;;;;5047791;28;20523;-75
2022/09/24 12:11:53;;;;;;;4.93;3.15;;;19.00;78.70;;;;;;5044049;28;20431;-74
2022/09/24 12:14:25;;;;;;;6.35;2.80;;;18.80;80.60;;;;;;5047517;28;20017;-74
2022/09/24 12:16:57;;;;;;;3.97;2.85;;;18.80;80.00;;;;;;5038292;28;20048;-74
2022/09/24 12:19:34;;;;;;;5.45;3.38;;;18.70;81.20;;;;;;5036877;28;20079;-74
2022/09/24 12:22:02;;;;;;;4.60;3.25;;;18.70;77.20;;;;;;5029190;28;20129;-74
2022/09/24 12:24:38;;;;;;;6.20;3.60;;;18.70;78.30;;;;;;5040612;28;20056;-75
2022/09/24 12:27:15;;;;;;;4.38;3.03;;;18.60;77.70;;;;;;5042743;28;20126;-75
2022/09/24 12:33:31;;;;;;;4.00;2.70;;;18.70;80.40;;;;;;4968063;28;20034;-75
2022/09/24 12:36:22;;;;;;;4.85;3.25;;;18.70;82.50;;;;;;4973964;28;20027;-76
2022/09/24 12:38:59;;;;;;;4.20;3.10;;;18.50;81.80;;;;;;5019142;28;20118;-76
2022/09/24 12:41:33;;;;;;;7.55;3.00;;;18.60;83.50;;;;;;5043951;28;20035;-74
2022/09/24 12:44:04;;;;;;;4.28;2.90;;;18.80;83.00;;;;;;5047720;28;20033;-75
2022/09/24 12:46:43;;;;;;;5.45;3.45;;;18.90;81.00;;;;;;5047767;28;20532;-74
2022/09/24 12:49:24;;;;;;;5.57;2.90;;;19.10;79.30;;;;;;5042264;28;20066;-74
2022/09/24 12:51:55;;;;;;;5.65;3.80;;;19.40;80.60;;;;;;5043837;28;20132;-74
2022/09/24 12:54:29;;;;;;;5.93;3.30;;;19.70;76.30;;;;;;5038922;28;20029;-75
2022/09/24 12:57:10;;;;;;;5.50;3.30;;;20.20;74.50;;;;;;5040271;28;20028;-74
2022/09/24 12:59:46;;;;;;;;;;;20.40;72.90;;;;;;5043642;28;20475;-74
2022/09/24 13:02:20;;;;;;;4.07;3.10;;;20.80;71.30;;;;;;5037413;28;20054;-74
2022/09/24 13:05:02;;;;;;;4.32;3.17;;;21.10;68.50;;;;;;5041723;28;20128;-74
2022/09/24 13:07:38;;;;;;;4.68;3.55;;;21.50;69.10;;;;;;5038430;28;20037;-74
2022/09/24 13:10:34;;;;;;;5.47;3.65;;;22.90;64.50;;;;;;5041906;28;20025;-76
2022/09/24 13:13:01;;;;;;;4.35;2.80;;;24.20;62.50;;;;;;5035983;28;20702;-74
2022/09/24 13:15:36;;;;;;;3.78;2.78;;;24.50;60.80;;;;;;5037426;28;20025;-73
2022/09/24 13:18:17;;;;;;;4.22;2.97;;;25.50;59.30;;;;;;5043966;28;20021;-74
2022/09/24 13:20:43;;;;;;;4.50;3.10;;;25.00;60.20;;;;;;5038613;28;20020;-73
2022/09/24 13:23:30;;;;;;;7.18;3.60;;;24.00;58.20;;;;;;5042463;28;20523;-73
2022/09/24 13:26:08;;;;;;;5.07;3.17;;;23.40;60.10;;;;;;5047023;28;20033;-73